createdAt,value
2018-04-20T00:00:14.519Z,14.80
2018-04-20T00:05:17.216Z,14.70
2018-04-20T00:10:20.144Z,14.60
2018-04-20T00:15:23.811Z,14.50
2018-04-20T00:20:27.198Z,14.50
2018-04-20T00:25:30.471Z,14.40
2018-04-20T00:30:33.519Z,14.30
2018-04-20T00:35:36.915Z,14.20
2018-04-20T00:40:39.763Z,14.20
2018-04-20T00:45:42.924Z,14.10
2018-04-20T00:50:45.562Z,14.00
2018-04-20T00:55:49.425Z,13.90
2018-04-20T01:00:52.137Z,13.90
2018-04-20T01:05:56.792Z,13.80
2018-04-20T01:10:59.992Z,13.70
2018-04-20T01:16:06.595Z,13.60
2018-04-20T01:21:09.371Z,13.60
2018-04-20T01:26:12.703Z,13.50
2018-04-20T01:31:15.626Z,13.40
2018-04-20T01:36:20.085Z,13.30
2018-04-20T01:41:23.106Z,13.30
2018-04-20T01:46:25.927Z,13.20
2018-04-20T01:51:28.900Z,13.10
2018-04-20T01:56:31.765Z,13.00
2018-04-20T02:01:36.259Z,13.00
2018-04-20T02:06:39.084Z,12.90
2018-04-20T02:11:44.218Z,12.80
2018-04-20T02:16:48.459Z,12.80
2018-04-20T02:21:51.980Z,12.70
2018-04-20T02:26:54.723Z,12.70
2018-04-20T02:32:00.865Z,12.70
2018-04-20T02:37:03.782Z,12.60
2018-04-20T02:42:08.252Z,12.60
2018-04-20T02:47:11.809Z,12.50
2018-04-20T02:52:15.317Z,12.50
2018-04-20T02:57:18.072Z,12.40
2018-04-20T03:02:21.130Z,12.40
2018-04-20T03:07:24.049Z,12.30
2018-04-20T03:12:27.777Z,12.30
2018-04-20T03:17:30.700Z,12.20
2018-04-20T03:22:33.469Z,12.20
2018-04-20T03:27:36.293Z,12.20
2018-04-20T03:32:41.583Z,12.10
2018-04-20T03:37:45.297Z,12.00
2018-04-20T03:42:48.534Z,12.00
2018-04-20T03:47:51.382Z,12.00
2018-04-20T03:52:54.295Z,11.90
2018-04-20T03:57:58.470Z,11.90
2018-04-20T04:03:02.821Z,11.80
2018-04-20T04:08:05.616Z,11.80
2018-04-20T04:13:08.981Z,11.80
2018-04-20T04:18:24.038Z,11.70
2018-04-20T04:23:38.720Z,11.70
2018-04-20T04:28:42.924Z,11.70
2018-04-20T04:33:45.683Z,11.70
2018-04-20T04:38:48.754Z,11.60
2018-04-20T04:43:51.706Z,11.60
2018-04-20T04:48:55.542Z,11.60
2018-04-20T04:53:58.604Z,11.60
2018-04-20T04:59:01.185Z,11.60
2018-04-20T05:04:03.933Z,11.60
2018-04-20T05:09:06.467Z,11.70
2018-04-20T05:14:09.097Z,11.70
2018-04-20T05:19:11.650Z,11.80
2018-04-20T05:24:14.200Z,11.90
2018-04-20T05:29:16.754Z,12.00
2018-04-20T05:34:19.440Z,12.20
2018-04-20T05:39:21.974Z,12.40
2018-04-20T05:44:24.496Z,12.70
2018-04-20T05:49:27.084Z,13.00
2018-04-20T05:54:29.677Z,13.40
2018-04-20T05:59:32.227Z,13.70
2018-04-20T06:04:35.582Z,14.00
2018-04-20T06:09:38.110Z,14.40
2018-04-20T06:14:40.655Z,14.80
2018-04-20T06:19:43.229Z,15.10
2018-04-20T06:24:45.770Z,15.50
2018-04-20T06:29:48.363Z,15.80
2018-04-20T06:34:50.981Z,16.20
2018-04-20T06:39:53.505Z,16.50
2018-04-20T06:44:56.061Z,16.90
2018-04-20T06:49:58.619Z,17.30
2018-04-20T06:55:01.162Z,17.60
2018-04-20T07:00:03.692Z,18.00
2018-04-20T07:05:06.263Z,18.40
2018-04-20T07:10:08.799Z,18.90
2018-04-20T07:15:11.326Z,19.30
2018-04-20T07:20:13.863Z,19.80
2018-04-20T07:25:16.398Z,20.20
2018-04-20T07:30:18.920Z,20.60
2018-04-20T07:35:21.456Z,20.90
2018-04-20T07:40:23.991Z,21.20
2018-04-20T07:45:26.507Z,21.50
2018-04-20T07:50:29.042Z,21.70
2018-04-20T07:55:31.568Z,22.00
2018-04-20T08:00:34.087Z,22.20
2018-04-20T08:05:36.607Z,22.50
2018-04-20T08:10:39.137Z,22.70
2018-04-20T08:15:41.673Z,22.90
2018-04-20T08:20:44.212Z,23.10
2018-04-20T08:25:46.755Z,23.20
2018-04-20T08:30:49.293Z,23.40
2018-04-20T08:35:51.825Z,23.70
2018-04-20T08:40:54.366Z,23.90
2018-04-20T08:45:56.894Z,24.20
2018-04-20T08:50:59.430Z,24.40
2018-04-20T08:56:01.972Z,24.60
2018-04-20T09:01:04.493Z,24.80
2018-04-20T09:06:07.035Z,25.00
2018-04-20T09:11:09.613Z,25.10
2018-04-20T09:16:12.158Z,25.20
2018-04-20T09:21:14.737Z,25.30
2018-04-20T09:26:17.257Z,25.50
2018-04-20T09:31:19.785Z,25.60
2018-04-20T09:36:22.311Z,25.80
2018-04-20T09:41:24.853Z,25.90
2018-04-20T09:46:27.425Z,26.10
2018-04-20T09:51:29.961Z,26.20
2018-04-20T09:56:32.481Z,26.30
2018-04-20T10:01:35.005Z,26.60
2018-04-20T10:06:37.549Z,26.70
2018-04-20T10:11:40.065Z,26.90
2018-04-20T10:16:42.602Z,27.00
2018-04-20T10:21:45.125Z,27.10
2018-04-20T10:26:47.650Z,27.30
2018-04-20T10:31:50.164Z,27.40
2018-04-20T10:36:52.700Z,27.60
2018-04-20T10:41:55.217Z,27.70
2018-04-20T10:46:57.749Z,27.80
2018-04-20T10:52:00.277Z,27.90
2018-04-20T10:57:02.798Z,28.00
2018-04-20T11:02:05.321Z,28.20
2018-04-20T11:07:07.841Z,28.30
2018-04-20T11:12:10.364Z,28.40
2018-04-20T11:17:12.937Z,28.50
2018-04-20T11:22:15.459Z,28.70
2018-04-20T11:27:17.978Z,28.80
2018-04-20T11:32:20.497Z,28.90
2018-04-20T11:37:23.032Z,29.00
2018-04-20T11:42:25.548Z,29.10
2018-04-20T11:47:28.082Z,29.20
2018-04-20T11:52:30.601Z,29.20
2018-04-20T11:57:33.129Z,29.30
2018-04-20T12:02:35.657Z,29.30
2018-04-20T12:07:38.194Z,29.50
2018-04-20T12:12:40.721Z,29.60
2018-04-20T12:17:43.371Z,29.70
2018-04-20T12:22:45.907Z,29.80
2018-04-20T12:27:48.456Z,29.80
2018-04-20T12:32:51.067Z,29.90
2018-04-20T12:37:53.593Z,29.90
2018-04-20T12:42:56.907Z,30.00
2018-04-20T12:47:59.448Z,29.90
2018-04-20T12:53:01.974Z,30.00
2018-04-20T12:58:04.510Z,30.00
2018-04-20T13:03:07.049Z,30.10
2018-04-20T13:08:09.571Z,30.10
2018-04-20T13:13:12.120Z,30.20
2018-04-20T13:18:14.657Z,30.20
2018-04-20T13:23:17.198Z,30.20
2018-04-20T13:28:20.502Z,30.20
2018-04-20T13:33:23.019Z,30.20
2018-04-20T13:38:25.573Z,30.20
2018-04-20T13:43:28.645Z,30.20
2018-04-20T13:48:31.175Z,30.20
2018-04-20T13:53:33.705Z,30.20
2018-04-20T13:58:36.230Z,30.20
2018-04-20T14:03:38.813Z,30.30
2018-04-20T14:08:41.334Z,30.30
2018-04-20T14:13:43.874Z,30.20
2018-04-20T14:18:46.420Z,30.20
2018-04-20T14:23:48.937Z,30.10
2018-04-20T14:28:51.469Z,30.00
2018-04-20T14:33:54.002Z,30.00
2018-04-20T14:38:56.521Z,29.90
2018-04-20T14:43:59.092Z,29.80
2018-04-20T14:49:01.583Z,29.80
2018-04-20T14:54:04.171Z,29.70
2018-04-20T14:59:06.724Z,29.50
2018-04-20T15:04:09.272Z,29.50
2018-04-20T15:09:11.802Z,29.40
2018-04-20T15:14:14.333Z,29.30
2018-04-20T15:19:16.885Z,29.20
2018-04-20T15:24:19.418Z,29.20
2018-04-20T15:29:21.945Z,29.10
2018-04-20T15:34:24.479Z,29.00
2018-04-20T15:39:26.998Z,28.90
2018-04-20T15:44:29.521Z,28.90
2018-04-20T15:49:32.044Z,28.80
2018-04-20T15:54:34.582Z,28.70
2018-04-20T15:59:37.117Z,28.70
2018-04-20T16:04:39.693Z,28.60
2018-04-20T16:09:42.222Z,28.50
2018-04-20T16:14:44.745Z,28.50
2018-04-20T16:19:47.266Z,28.40
2018-04-20T16:36:52.601Z,28.10
2018-04-20T17:11:52.352Z,27.40
2018-04-20T17:29:30.525Z,27.10
2018-04-20T18:34:44.098Z,24.40
2018-04-20T18:39:48.553Z,24.10
2018-04-20T18:50:01.391Z,23.70
2018-04-20T18:55:05.584Z,23.40
2018-04-20T19:00:08.964Z,23.20
2018-04-20T19:05:12.416Z,22.90
2018-04-20T19:10:15.159Z,22.70
2018-04-20T19:15:19.562Z,22.50
2018-04-20T19:25:30.659Z,22.00
2018-04-20T19:30:33.467Z,21.80
2018-04-20T19:35:37.981Z,21.60
2018-04-20T19:40:42.285Z,21.40
2018-04-20T19:45:45.712Z,21.20
2018-04-20T19:50:51.774Z,21.00
2018-04-20T19:55:54.697Z,20.80
2018-04-20T20:06:05.045Z,20.50
2018-04-20T20:11:11.052Z,20.30
2018-04-20T20:16:14.329Z,20.10
2018-04-20T20:21:17.771Z,19.90
2018-04-20T20:26:21.254Z,19.70
2018-04-20T20:31:24.747Z,19.60
2018-04-20T20:36:27.702Z,19.40
2018-04-20T20:41:31.098Z,19.30
2018-04-20T20:46:35.377Z,19.10
2018-04-20T20:51:41.219Z,18.90
2018-04-20T20:56:44.685Z,18.80
2018-04-20T21:01:48.274Z,18.70
2018-04-20T21:06:50.817Z,18.50
2018-04-20T21:11:54.273Z,18.40
2018-04-20T21:16:58.865Z,18.20
2018-04-20T21:22:05.099Z,18.10
2018-04-20T21:27:08.034Z,18.00
2018-04-20T21:32:10.726Z,17.80
2018-04-20T21:37:14.494Z,17.60
2018-04-20T21:42:17.725Z,17.60
2018-04-20T21:47:20.526Z,17.50
2018-04-20T21:52:24.098Z,17.40
2018-04-20T21:57:28.395Z,17.20
2018-04-20T22:02:31.705Z,17.10
2018-04-20T22:07:35.900Z,17.00
2018-04-20T22:12:38.643Z,16.90
2018-04-20T22:17:42.223Z,16.70
2018-04-20T22:22:44.957Z,16.60
2018-04-20T22:27:48.002Z,16.50
2018-04-20T22:32:52.140Z,16.40
2018-04-20T22:37:55.074Z,16.30
2018-04-20T22:42:57.791Z,16.20
2018-04-20T22:48:01.328Z,16.10
2018-04-20T22:53:04.067Z,16.00
2018-04-20T22:58:07.373Z,15.90
2018-04-20T23:03:11.336Z,15.80
2018-04-20T23:08:14.780Z,15.70
2018-04-20T23:13:19.019Z,15.60
2018-04-20T23:18:22.306Z,15.50
2018-04-20T23:23:25.289Z,15.40
2018-04-20T23:28:28.750Z,15.30
2018-04-20T23:33:31.570Z,15.20
2018-04-20T23:38:34.546Z,15.10
2018-04-20T23:43:37.779Z,15.00
2018-04-20T23:48:40.727Z,14.90
2018-04-20T23:53:44.058Z,14.90
2018-04-20T23:58:47.721Z,14.80
